Time;durP1;ratioP1;P1;durP2;ratioP2;P2;SDS_P1;SDS_P2;PMS_P1;PMS_P2;Temp;Humidity;BMP_temperature;BMP_pressure;BME280_temperature;BME280_humidity;BME280_pressure;Samples;Min_cycle;Max_cycle;Signal;HPM_P1;HPM_P2
2023/03/03 00:01:15;;;;;;;32.83;24.67;;;;;;;7.41;67.79;99762.66;4975093;28;20081;-89
2023/03/03 00:03:40;;;;;;;30.92;25.48;;;;;;;7.23;67.88;99733.78;4973638;28;20027;-90
2023/03/03 00:06:09;;;;;;;30.42;24.38;;;;;;;7.95;67.77;99837.81;4975135;28;20665;-90
2023/03/03 00:08:35;;;;;;;31.70;23.83;;;;;;;7.39;67.46;99761.97;4973708;28;20023;-89
2023/03/03 00:11:03;;;;;;;31.10;23.55;;;;;;;7.37;67.64;99761.31;4974698;28;20038;-89
2023/03/03 00:13:30;;;;;;;31.95;24.27;;;;;;;7.94;67.71;99834.34;4973746;28;20019;-89
2023/03/03 00:16:13;;;;;;;31.52;23.58;;;;;;;7.17;67.16;99710.75;4973493;28;20038;-89
2023/03/03 00:18:42;;;;;;;31.92;23.60;;;;;;;7.96;67.86;99836.81;4974723;28;20066;-89
2023/03/03 00:21:19;;;;;;;29.73;22.83;;;;;;;7.48;67.56;99755.84;4974486;28;20478;-89
2023/03/03 00:23:44;;;;;;;29.55;22.30;;;;;;;7.09;67.29;99685.25;4973019;28;20050;-89
2023/03/03 00:26:35;;;;;;;33.00;23.55;;;;;;;7.27;67.44;99706.22;4974582;28;20504;-89
2023/03/03 00:29:01;;;;;;;34.10;24.52;;;;;;;8.00;66.88;99811.88;4974751;28;20053;-89
2023/03/03 00:31:33;;;;;;;29.50;23.33;;;;;;;7.94;66.98;99804.59;4974558;28;20492;-89
2023/03/03 00:34:22;;;;;;;32.88;25.70;;;;;;;7.27;67.05;99714.94;4977902;28;20098;-89
2023/03/03 00:36:50;;;;;;;29.63;22.42;;;;;;;7.19;66.84;99688.63;4988440;28;20039;-88
2023/03/03 00:39:18;;;;;;;26.73;22.00;;;;;;;7.53;67.32;99759.66;4975110;28;20027;-89
2023/03/03 00:41:44;;;;;;;30.80;23.27;;;;;;;7.44;67.05;99733.47;4974526;28;20054;-89
2023/03/03 00:44:41;;;;;;;31.17;23.00;;;;;;;7.10;66.82;99668.53;4974096;28;20070;-88
2023/03/03 00:47:29;;;;;;;32.50;23.85;;;;;;;7.87;66.94;99795.69;4973324;28;20026;-90
2023/03/03 00:50:10;;;;;;;30.00;21.88;;;;;;;7.88;67.30;99797.34;4964256;28;20519;-90
2023/03/03 00:52:43;;;;;;;27.33;22.60;;;;;;;7.44;67.05;99725.59;4974147;28;20419;-90
2023/03/03 00:55:10;;;;;;;32.00;23.02;;;;;;;7.59;66.72;99738.03;4972819;28;20077;-89
2023/03/03 00:57:35;;;;;;;29.70;23.40;;;;;;;6.99;67.15;99638.09;4974280;28;20077;-90
2023/03/03 01:00:01;;;;;;;31.83;22.38;;;;;;;7.34;67.12;99681.84;4973925;28;20027;-88
2023/03/03 01:02:26;;;;;;;33.45;21.45;;;;;;;7.68;67.24;99751.22;4974034;28;20023;-89
2023/03/03 01:04:55;;;;;;;29.02;23.02;;;;;;;7.04;67.18;99636.81;4973876;28;20090;-89
2023/03/03 01:07:21;;;;;;;29.90;23.30;;;;;;;7.94;67.19;99783.56;4973723;28;20081;-88
2023/03/03 01:09:46;;;;;;;28.92;21.63;;;;;;;7.41;66.76;99702.22;4972514;28;20529;-89
2023/03/03 01:12:12;;;;;;;28.90;22.40;;;;;;;7.57;66.98;99744.41;4973860;28;20113;-88
2023/03/03 01:14:38;;;;;;;29.35;23.30;;;;;;;7.95;66.98;99785.22;4972378;28;20116;-89
2023/03/03 01:17:05;;;;;;;28.67;22.50;;;;;;;7.94;67.02;99779.13;4973814;28;20038;-89
2023/03/03 01:19:30;;;;;;;32.83;23.13;;;;;;;7.40;66.64;99717.16;4973549;28;20471;-89
2023/03/03 01:21:56;;;;;;;30.35;23.35;;;;;;;7.28;67.10;99671.94;4973285;28;20126;-89
2023/03/03 01:24:22;;;;;;;29.50;22.38;;;;;;;5.90;66.31;99465.34;4973612;28;20404;-89
2023/03/03 01:26:47;;;;;;;27.33;22.13;;;;;;;6.04;66.58;99481.41;4973495;28;20118;-89
2023/03/03 01:29:12;;;;;;;26.77;21.42;;;;;;;7.54;67.00;99721.06;4972267;28;20114;-89
2023/03/03 01:31:39;;;;;;;27.45;21.17;;;;;;;7.16;66.54;99669.72;4973350;28;20142;-89
2023/03/03 01:34:06;;;;;;;27.52;22.00;;;;;;;7.02;66.47;99631.72;4973421;28;20027;-89
2023/03/03 01:36:32;;;;;;;27.00;21.50;;;;;;;7.98;66.79;99777.84;4971470;28;20029;-89
2023/03/03 01:38:58;;;;;;;26.65;21.50;;;;;;;6.54;66.55;99540.31;4973248;28;20034;-89
2023/03/03 01:41:28;;;;;;;30.25;22.25;;;;;;;7.22;66.64;99653.34;4972021;28;20034;-89
2023/03/03 01:43:55;;;;;;;29.92;22.02;;;;;;;7.96;66.61;99769.28;4973057;28;20122;-89
2023/03/03 01:46:23;;;;;;;27.85;20.45;;;;;;;7.97;66.53;99768.31;4973092;28;20038;-90
2023/03/03 01:48:50;;;;;;;29.45;23.67;;;;;;;7.18;66.18;99639.72;4972971;28;20026;-89
2023/03/03 01:51:26;;;;;;;29.52;22.98;;;;;;;7.81;66.01;99749.81;4973252;28;20420;-89
2023/03/03 01:53:56;;;;;;;28.90;22.63;;;;;;;8.02;66.68;99761.75;4973033;28;20023;-90
2023/03/03 01:56:22;;;;;;;28.38;22.13;;;;;;;7.77;66.19;99745.03;4973078;28;20034;-89
2023/03/03 01:58:52;;;;;;;26.27;21.67;;;;;;;7.28;65.98;99671.13;4971886;28;20126;-90
2023/03/03 02:01:26;;;;;;;27.75;21.05;;;;;;;8.02;66.45;99773.09;4972914;28;20109;-90
2023/03/03 02:03:52;;;;;;;24.17;20.40;;;;;;;7.26;66.30;99657.31;4972853;28;20037;-90
2023/03/03 02:06:21;;;;;;;28.27;23.15;;;;;;;7.14;66.29;99677.75;4972687;28;20026;-90
2023/03/03 02:08:58;;;;;;;29.92;21.70;;;;;;;7.39;66.37;99681.38;4971464;28;20496;-90
2023/03/03 02:11:25;;;;;;;27.92;21.52;;;;;;;7.91;66.35;99776.00;4972766;28;20510;-90
2023/03/03 02:13:51;;;;;;;27.30;21.10;;;;;;;7.80;66.74;99749.97;4973022;28;20110;-90
2023/03/03 02:16:17;;;;;;;32.33;23.65;;;;;;;7.98;66.45;99777.84;4971832;28;20446;-90
2023/03/03 02:18:42;;;;;;;30.02;21.60;;;;;;;7.64;66.41;99732.31;4973027;28;20039;-89
2023/03/03 02:21:21;;;;;;;26.80;21.65;;;;;;;7.91;66.90;99783.88;4972651;28;20057;-89
2023/03/03 02:24:07;;;;;;;26.30;20.92;;;;;;;7.90;66.31;99782.22;4972549;28;20083;-88
2023/03/03 02:26:39;;;;;;;27.48;21.40;;;;;;;7.30;66.26;99683.13;4973035;28;20034;-89
2023/03/03 02:29:04;;;;;;;36.70;23.40;;;;;;;7.47;66.81;99712.16;4971489;28;20033;-90
2023/03/03 02:31:31;;;;;;;26.45;21.48;;;;;;;7.79;66.92;99767.53;4972556;28;20422;-90
2023/03/03 02:33:57;;;;;;;29.92;22.55;;;;;;;7.87;66.62;99766.78;4972579;28;20039;-89
2023/03/03 02:36:28;;;;;;;29.77;22.83;;;;;;;7.46;66.81;99703.44;4972535;28;20625;-89
2023/03/03 02:39:17;;;;;;;28.35;20.98;;;;;;;7.85;66.55;99764.28;4972572;28;20027;-88
2023/03/03 02:42:03;;;;;;;25.77;20.63;;;;;;;7.23;67.06;99666.31;4972654;28;20027;-90
2023/03/03 02:44:31;;;;;;;28.75;22.55;;;;;;;6.81;66.51;99594.50;4972404;28;20034;-88
2023/03/03 02:46:58;;;;;;;28.88;23.35;;;;;;;7.21;66.54;99660.41;4970920;28;20034;-89
2023/03/03 02:49:26;;;;;;;30.20;22.23;;;;;;;6.73;66.53;99574.25;4973772;28;20026;-89
2023/03/03 02:51:52;;;;;;;27.55;22.25;;;;;;;5.62;66.52;99402.53;4974857;28;20054;-87
2023/03/03 02:54:18;;;;;;;28.75;21.08;;;;;;;7.88;66.48;99760.53;4976443;28;20452;-88
2023/03/03 02:56:44;;;;;;;29.25;23.50;;;;;;;7.51;66.88;99711.69;4976392;28;20030;-89
2023/03/03 02:59:11;;;;;;;26.88;21.63;;;;;;;7.91;66.77;99761.06;4976474;28;20411;-89
2023/03/03 03:01:37;;;;;;;30.05;22.08;;;;;;;7.52;66.63;99708.09;4976280;28;20564;-88
2023/03/03 03:04:10;;;;;;;25.23;19.63;;;;;;;7.29;66.65;99675.41;4976061;28;20034;-88
2023/03/03 03:06:35;;;;;;;30.77;21.33;;;;;;;7.07;66.95;99636.50;4976131;28;20030;-88
2023/03/03 03:09:01;;;;;;;30.92;22.65;;;;;;;7.13;67.14;99654.28;4974864;28;20031;-89
2023/03/03 03:11:26;;;;;;;30.02;22.75;;;;;;;7.74;67.24;99750.59;4976216;28;20041;-88
2023/03/03 03:13:52;;;;;;;30.58;22.45;;;;;;;7.57;66.91;99712.88;4976304;28;20029;-89
2023/03/03 03:16:18;;;;;;;27.80;21.55;;;;;;;7.83;66.90;99755.75;4974610;28;20093;-89
2023/03/03 03:18:44;;;;;;;26.90;20.65;;;;;;;7.33;67.03;99676.72;4974549;28;20105;-88
2023/03/03 03:21:11;;;;;;;30.70;23.00;;;;;;;7.60;66.84;99733.59;4975920;28;20539;-89
2023/03/03 03:23:37;;;;;;;33.67;24.60;;;;;;;7.85;67.33;99753.78;4974307;28;20050;-88
2023/03/03 03:26:03;;;;;;;29.88;20.38;;;;;;;7.64;66.81;99719.97;4975867;28;20089;-89
2023/03/03 03:28:29;;;;;;;28.85;21.65;;;;;;;7.22;67.42;99661.22;4980386;28;20057;-89
2023/03/03 03:30:55;;;;;;;29.20;21.90;;;;;;;7.12;67.20;99636.88;4976128;28;20101;-88
2023/03/03 03:33:20;;;;;;;29.48;22.05;;;;;;;7.42;67.29;99696.00;4975664;28;20034;-88
2023/03/03 03:35:47;;;;;;;28.08;22.02;;;;;;;7.45;67.18;99690.47;4975866;28;20113;-89
2023/03/03 03:38:13;;;;;;;28.48;21.33;;;;;;;7.16;66.99;99661.84;4975700;28;20445;-89
2023/03/03 03:40:39;;;;;;;30.10;23.27;;;;;;;7.81;67.58;99744.56;4975645;28;20030;-88
2023/03/03 03:43:04;;;;;;;28.00;21.42;;;;;;;7.43;67.43;99698.50;4975621;28;20030;-88
2023/03/03 03:45:30;;;;;;;30.05;23.50;;;;;;;7.12;67.73;99631.63;4975481;28;20038;-89
2023/03/03 03:47:55;;;;;;;30.85;24.40;;;;;;;6.98;67.78;99607.56;4975161;28;20041;-89
2023/03/03 03:50:21;;;;;;;27.85;22.65;;;;;;;7.48;67.22;99698.03;4975260;28;20030;-89
2023/03/03 03:52:46;;;;;;;30.50;23.38;;;;;;;6.86;67.14;99587.81;4973875;28;20027;-88
2023/03/03 03:55:12;;;;;;;27.52;21.67;;;;;;;7.00;67.78;99628.41;4975300;28;20105;-88
2023/03/03 03:57:37;;;;;;;28.67;22.17;;;;;;;7.48;67.47;99696.25;4973808;28;20096;-88
2023/03/03 04:00:07;;;;;;;32.20;23.38;;;;;;;7.68;67.56;99738.91;4973331;28;20026;-89
2023/03/03 04:02:34;;;;;;;30.33;22.40;;;;;;;7.29;67.61;99667.50;4974904;28;20027;-89
2023/03/03 04:04:59;;;;;;;27.55;20.27;;;;;;;7.12;67.28;99634.25;4973922;28;20031;-89
2023/03/03 04:07:25;;;;;;;28.92;22.63;;;;;;;7.43;67.41;99690.63;4975248;28;20050;-89
2023/03/03 04:09:51;;;;;;;28.23;20.92;;;;;;;6.73;67.72;99571.63;4974971;28;20042;-88
2023/03/03 04:12:16;;;;;;;27.55;21.10;;;;;;;7.59;67.34;99701.22;4974898;28;20484;-88
2023/03/03 04:14:42;;;;;;;28.50;20.80;;;;;;;7.16;67.74;99636.41;4974997;28;20108;-88
2023/03/03 04:17:07;;;;;;;29.63;21.15;;;;;;;5.73;66.82;99401.47;4974957;28;20454;-89
2023/03/03 04:19:33;;;;;;;29.55;22.13;;;;;;;7.12;67.29;99648.19;4973654;28;20536;-89
2023/03/03 04:21:58;;;;;;;27.58;19.52;;;;;;;7.15;67.18;99623.44;4973256;28;20188;-88
2023/03/03 04:24:23;;;;;;;29.17;21.67;;;;;;;7.58;67.64;99706.66;4973356;28;20037;-88
2023/03/03 04:26:49;;;;;;;27.00;19.08;;;;;;;7.22;66.93;99634.97;4974965;28;20412;-89
2023/03/03 04:29:14;;;;;;;27.00;19.35;;;;;;;7.25;67.20;99660.91;4974613;28;20019;-89
2023/03/03 04:31:40;;;;;;;27.40;19.25;;;;;;;7.16;67.29;99644.28;4974544;28;20393;-89
2023/03/03 04:34:05;;;;;;;26.45;19.33;;;;;;;7.25;67.50;99651.25;4973300;28;20022;-88
2023/03/03 04:36:30;;;;;;;26.27;17.98;;;;;;;7.28;67.06;99666.69;4974458;28;20101;-88
2023/03/03 04:38:56;;;;;;;29.52;20.23;;;;;;;7.35;67.17;99669.53;4974894;28;20123;-88
2023/03/03 04:41:21;;;;;;;25.95;18.05;;;;;;;7.08;67.60;99635.53;4972950;28;20500;-89
2023/03/03 04:43:47;;;;;;;28.05;21.38;;;;;;;7.26;67.68;99660.78;4972945;28;20037;-89
2023/03/03 04:46:12;;;;;;;27.63;20.45;;;;;;;7.56;67.23;99712.06;4973074;28;20018;-88
2023/03/03 04:48:37;;;;;;;25.10;19.45;;;;;;;7.08;67.32;99623.22;4974455;28;20109;-89
2023/03/03 04:51:03;;;;;;;28.05;19.65;;;;;;;7.24;67.16;99646.13;4973019;28;20031;-89
2023/03/03 04:53:29;;;;;;;27.60;21.02;;;;;;;7.61;67.18;99701.06;4974357;28;20393;-89
2023/03/03 04:55:54;;;;;;;27.20;20.38;;;;;;;7.82;67.30;99729.63;4973000;28;20026;-89
2023/03/03 04:58:20;;;;;;;24.02;20.17;;;;;;;7.12;67.57;99619.31;4972706;28;20081;-88
2023/03/03 05:00:51;;;;;;;27.85;18.25;;;;;;;7.80;67.15;99729.78;4974091;28;20122;-88
2023/03/03 05:03:17;;;;;;;28.70;21.50;;;;;;;6.99;67.17;99624.97;4973884;28;20027;-89
2023/03/03 05:05:42;;;;;;;27.17;20.30;;;;;;;7.61;67.37;99733.44;4972507;28;20026;-88
2023/03/03 05:08:07;;;;;;;27.98;19.52;;;;;;;6.90;67.90;99610.13;4973982;28;20033;-89
2023/03/03 05:10:33;;;;;;;32.38;23.58;;;;;;;7.42;67.22;99704.69;4973765;28;20126;-89
2023/03/03 05:12:58;;;;;;;36.22;24.02;;;;;;;7.10;67.49;99659.81;4971566;28;20030;-89
2023/03/03 05:15:24;;;;;;;29.27;21.02;;;;;;;7.25;67.39;99674.06;4973794;28;20085;-88
2023/03/03 05:17:52;;;;;;;26.50;20.30;;;;;;;7.37;67.29;99691.22;4973664;28;20062;-89
2023/03/03 05:20:17;;;;;;;26.80;19.65;;;;;;;6.80;67.73;99606.78;4973709;28;20121;-89
2023/03/03 05:22:43;;;;;;;27.27;20.77;;;;;;;7.34;67.58;99670.50;4973375;28;20527;-89
2023/03/03 05:25:10;;;;;;;28.27;19.67;;;;;;;7.16;67.57;99651.34;4973612;28;20419;-89
2023/03/03 05:27:35;;;;;;;26.42;20.65;;;;;;;7.08;67.52;99628.47;4972292;28;20118;-89
2023/03/03 05:30:01;;;;;;;25.90;18.95;;;;;;;7.79;67.46;99749.16;4972157;28;20173;-88
2023/03/03 05:32:26;;;;;;;24.67;19.67;;;;;;;7.39;67.35;99704.19;4971898;28;20058;-88
2023/03/03 05:34:51;;;;;;;25.75;19.30;;;;;;;6.98;67.57;99630.38;4971911;28;20026;-89
2023/03/03 05:37:17;;;;;;;28.30;20.45;;;;;;;7.52;67.58;99721.22;4973114;28;20178;-88
2023/03/03 05:39:43;;;;;;;26.17;19.55;;;;;;;6.58;67.60;99576.56;4973125;28;20157;-88
2023/03/03 05:42:12;;;;;;;23.85;19.00;;;;;;;7.17;67.50;99653.81;4973240;28;20137;-89
2023/03/03 05:44:37;;;;;;;27.27;19.42;;;;;;;6.95;67.42;99614.94;4971851;28;20029;-88
2023/03/03 05:47:03;;;;;;;29.33;22.10;;;;;;;7.51;67.44;99709.06;4973346;28;20105;-89
2023/03/03 05:49:28;;;;;;;26.17;19.42;;;;;;;6.37;67.10;99513.94;4992314;28;20057;-90
2023/03/03 05:51:53;;;;;;;26.75;20.42;;;;;;;7.37;67.28;99729.78;4992421;28;20038;-89
2023/03/03 05:54:19;;;;;;;28.83;19.10;;;;;;;7.04;67.67;99642.06;4994745;28;20054;-89
2023/03/03 05:56:44;;;;;;;31.00;22.83;;;;;;;7.61;67.89;99707.16;5006785;28;20113;-90
2023/03/03 05:59:10;;;;;;;28.08;20.80;;;;;;;5.92;67.29;99468.66;4993451;28;20036;-89
2023/03/03 06:01:35;;;;;;;30.10;21.33;;;;;;;7.25;67.67;99655.66;4991102;28;20034;-88
2023/03/03 06:04:01;;;;;;;30.13;21.45;;;;;;;7.35;67.91;99669.53;4991003;28;20117;-89
2023/03/03 06:06:27;;;;;;;31.45;23.70;;;;;;;7.51;67.71;99688.03;4992180;28;20469;-89
2023/03/03 06:08:52;;;;;;;32.63;25.23;;;;;;;7.86;67.70;99749.34;4992114;28;20030;-89
2023/03/03 06:11:18;;;;;;;37.50;27.30;;;;;;;7.18;67.60;99657.25;4992101;28;20030;-89
2023/03/03 06:13:43;;;;;;;35.08;25.50;;;;;;;7.27;67.70;99699.19;4992660;28;20415;-89
2023/03/03 06:16:09;;;;;;;29.85;22.88;;;;;;;7.47;67.50;99704.28;5001728;28;20026;-89
2023/03/03 06:18:35;;;;;;;38.88;27.23;;;;;;;7.78;68.01;99755.38;5001507;28;20492;-89
2023/03/03 06:21:00;;;;;;;36.88;25.98;;;;;;;6.89;67.84;99639.16;4991152;28;20467;-89
2023/03/03 06:23:25;;;;;;;30.00;22.63;;;;;;;7.59;67.60;99735.38;4990405;28;20054;-89
2023/03/03 06:25:52;;;;;;;35.30;25.00;;;;;;;7.44;68.37;99726.41;4992588;28;20040;-89
2023/03/03 06:28:18;;;;;;;32.75;24.90;;;;;;;7.46;68.16;99724.47;4992468;28;20030;-89
2023/03/03 06:30:44;;;;;;;32.53;24.50;;;;;;;7.79;68.22;99751.78;4991877;28;20030;-89
2023/03/03 06:33:09;;;;;;;29.58;22.75;;;;;;;7.18;68.11;99644.97;4991913;28;20101;-89
2023/03/03 06:35:35;;;;;;;31.10;22.48;;;;;;;7.03;67.44;99629.91;4992018;28;20389;-89
2023/03/03 06:38:01;;;;;;;36.70;22.88;;;;;;;7.48;67.97;99696.25;4992100;28;20487;-89
2023/03/03 06:40:26;;;;;;;34.72;22.90;;;;;;;6.10;67.46;99485.22;4992033;28;20029;-89
2023/03/03 06:42:51;;;;;;;30.45;21.75;;;;;;;7.68;67.52;99730.19;4991796;28;20054;-89
2023/03/03 06:45:17;;;;;;;30.30;22.73;;;;;;;6.94;67.70;99639.53;4991790;28;20487;-89
2023/03/03 06:47:42;;;;;;;35.97;24.05;;;;;;;7.47;67.64;99697.22;4991668;28;20018;-89
2023/03/03 06:50:11;;;;;;;31.00;23.90;;;;;;;7.52;67.98;99699.38;4991852;28;20085;-89
2023/03/03 06:52:36;;;;;;;32.40;23.65;;;;;;;7.87;67.93;99748.38;4991795;28;20084;-89
2023/03/03 06:55:12;;;;;;;29.98;22.38;;;;;;;6.83;67.92;99576.78;4991786;28;20030;-89
2023/03/03 06:57:38;;;;;;;32.17;22.40;;;;;;;7.97;67.62;99749.91;4992012;28;20037;-88
2023/03/03 07:00:26;;;;;;;35.05;24.20;;;;;;;7.91;67.45;99745.28;4991863;28;20026;-88
2023/03/03 07:03:17;;;;;;;35.65;25.10;;;;;;;7.91;67.48;99750.53;4990660;28;20551;-89
2023/03/03 07:05:44;;;;;;;42.53;27.52;;;;;;;7.61;67.72;99708.97;4991821;28;20036;-87
2023/03/03 07:08:13;;;;;;;36.92;24.85;;;;;;;7.92;67.96;99754.81;4991855;28;20038;-88
2023/03/03 07:10:39;;;;;;;32.80;22.67;;;;;;;6.95;67.74;99607.88;4991760;28;20100;-88
2023/03/03 07:13:18;;;;;;;42.08;25.45;;;;;;;7.87;68.15;99749.19;4991834;28;20381;-89
2023/03/03 07:15:43;;;;;;;48.35;27.25;;;;;;;7.88;67.61;99748.22;4991734;28;20030;-89
2023/03/03 07:18:25;;;;;;;44.28;26.00;;;;;;;7.50;68.08;99696.09;4991939;28;20022;-89
2023/03/03 07:20:51;;;;;;;44.63;26.58;;;;;;;7.17;67.50;99618.84;4991750;28;20030;-89
2023/03/03 07:23:41;;;;;;;54.22;30.50;;;;;;;7.72;67.95;99703.44;4991492;28;20436;-89
2023/03/03 07:26:21;;;;;;;45.05;26.63;;;;;;;7.33;68.08;99655.72;4991984;28;20033;-89
2023/03/03 07:29:18;;;;;;;41.13;26.58;;;;;;;7.77;67.81;99724.81;4991380;28;20466;-89
2023/03/03 07:31:48;;;;;;;41.50;26.95;;;;;;;7.91;67.76;99747.06;4989416;28;21033;-90
2023/03/03 07:34:36;;;;;;;46.17;27.88;;;;;;;7.94;67.82;99744.13;4991166;28;20507;-89
2023/03/03 07:37:12;;;;;;;47.03;27.88;;;;;;;6.37;67.83;99511.31;4993851;28;20034;-89
2023/03/03 07:39:39;;;;;;;47.90;29.80;;;;;;;7.54;67.79;99700.03;4994933;28;20033;-90
2023/03/03 07:42:08;;;;;;;47.90;28.63;;;;;;;7.94;67.96;99749.41;4994843;28;20491;-88
2023/03/03 07:44:36;;;;;;;48.08;30.02;;;;;;;7.93;68.20;99745.13;4994736;28;20022;-89
2023/03/03 07:47:23;;;;;;;51.10;31.08;;;;;;;7.95;68.06;99751.88;4994688;28;20026;-89
2023/03/03 07:49:49;;;;;;;49.80;32.58;;;;;;;7.74;68.20;99712.00;4993238;28;20092;-89
2023/03/03 07:53:01;;;;;;;49.97;30.23;;;;;;;7.54;68.12;99682.47;4994589;28;20117;-89
2023/03/03 07:55:34;;;;;;;50.65;30.92;;;;;;;7.98;68.32;99748.09;4950976;28;20554;-89
2023/03/03 07:58:11;;;;;;;49.80;29.15;;;;;;;8.00;67.90;99750.56;4971334;28;20039;-89
2023/03/03 08:00:55;;;;;;;49.30;30.60;;;;;;;8.01;68.35;99750.41;4980284;28;20045;-87
2023/03/03 08:03:21;;;;;;;53.15;30.60;;;;;;;7.88;68.41;99753.47;4990864;28;20046;-86
2023/03/03 08:05:48;;;;;;;54.75;32.50;;;;;;;7.86;68.29;99741.47;4982761;28;20026;-86
2023/03/03 08:08:35;;;;;;;53.65;32.97;;;;;;;7.95;68.78;99743.97;4992284;28;20058;-86
2023/03/03 08:11:02;;;;;;;58.70;34.55;;;;;;;8.02;68.40;99751.25;4992073;28;20029;-89
2023/03/03 08:13:28;;;;;;;56.15;34.83;;;;;;;8.05;68.44;99750.94;4978113;28;20487;-89
2023/03/03 08:16:16;;;;;;;58.88;34.65;;;;;;;7.15;68.47;99605.88;4986446;28;20034;-88
2023/03/03 08:18:47;;;;;;;61.83;34.88;;;;;;;7.52;68.57;99667.84;4974429;28;20037;-89
2023/03/03 08:21:14;;;;;;;68.88;39.17;;;;;;;7.60;68.11;99684.50;4973827;28;20031;-89
2023/03/03 08:23:39;;;;;;;79.97;39.00;;;;;;;7.18;68.38;99631.00;4974254;28;20138;-89
2023/03/03 08:26:06;;;;;;;75.03;39.72;;;;;;;7.95;68.88;99745.78;4982799;28;20113;-89
2023/03/03 08:28:31;;;;;;;67.13;40.42;;;;;;;7.10;69.06;99615.19;4992938;28;20492;-89
2023/03/03 08:30:56;;;;;;;63.00;34.50;;;;;;;7.03;68.94;99603.66;4977088;28;20089;-87
2023/03/03 08:33:22;;;;;;;59.80;33.05;;;;;;;7.88;68.77;99736.88;4995542;28;20034;-89
2023/03/03 08:35:48;;;;;;;53.47;33.03;;;;;;;7.89;68.64;99739.34;4990999;28;20097;-88
2023/03/03 08:38:18;;;;;;;56.65;32.80;;;;;;;7.68;69.11;99694.22;4978667;28;20058;-88
2023/03/03 08:40:44;;;;;;;57.38;34.35;;;;;;;7.56;68.86;99671.81;4978697;28;20073;-88
2023/03/03 08:43:12;;;;;;;58.95;37.03;;;;;;;7.06;69.22;99593.69;4976215;28;20030;-87
2023/03/03 08:45:37;;;;;;;55.90;34.47;;;;;;;7.95;69.32;99727.38;4972582;28;20035;-87
2023/03/03 08:48:03;;;;;;;50.92;36.58;;;;;;;7.42;69.62;99641.66;4973524;28;20101;-88
2023/03/03 08:50:28;;;;;;;55.85;35.38;;;;;;;7.49;69.28;99641.88;4978253;28;20038;-87
2023/03/03 08:52:55;;;;;;;52.85;35.45;;;;;;;7.74;69.32;99677.00;4973844;28;20031;-88
2023/03/03 08:55:21;;;;;;;50.08;35.78;;;;;;;7.40;69.82;99619.97;4973332;28;20030;-89
2023/03/03 08:57:47;;;;;;;47.40;34.42;;;;;;;7.01;69.52;99544.25;4976547;28;20045;-88
2023/03/03 09:00:15;;;;;;;44.42;30.75;;;;;;;7.78;69.87;99673.09;4974475;28;20110;-89
2023/03/03 09:02:41;;;;;;;42.05;31.25;;;;;;;7.42;69.45;99594.38;4974273;28;20023;-88
2023/03/03 09:05:08;;;;;;;43.70;32.10;;;;;;;7.29;69.74;99562.47;4975468;28;20081;-88
2023/03/03 09:07:33;;;;;;;38.40;29.92;;;;;;;7.51;69.71;99611.84;4979240;28;20019;-88
2023/03/03 09:09:59;;;;;;;45.75;34.20;;;;;;;7.58;69.36;99612.06;4974836;28;20033;-88
2023/03/03 09:12:42;;;;;;;39.13;31.08;;;;;;;8.22;69.46;99707.97;4979360;28;20109;-88
2023/03/03 09:15:36;;;;;;;44.42;31.17;;;;;;;7.96;70.32;99671.19;4993195;28;20037;-86
2023/03/03 09:18:15;;;;;;;37.42;29.52;;;;;;;7.39;70.05;99589.44;4989696;28;20033;-87
2023/03/03 09:20:43;;;;;;;39.75;29.30;;;;;;;7.72;69.94;99653.50;4993005;28;20030;-86
2023/03/03 09:23:29;;;;;;;39.28;29.83;;;;;;;8.22;70.23;99697.44;4992050;28;20629;-87
2023/03/03 09:25:56;;;;;;;36.70;30.95;;;;;;;7.71;69.28;99627.38;4974143;28;20523;-87
2023/03/03 09:28:27;;;;;;;33.67;26.00;;;;;;;8.22;69.82;99703.53;4979335;28;20423;-86
2023/03/03 09:30:55;;;;;;;41.10;29.48;;;;;;;8.19;69.45;99721.44;4980685;28;20038;-85
2023/03/03 09:33:20;;;;;;;32.92;25.13;;;;;;;8.20;69.72;99702.88;4973121;28;20030;-85
2023/03/03 09:36:09;;;;;;;34.45;26.00;;;;;;;7.80;69.49;99619.38;4971857;28;20029;-86
2023/03/03 09:38:42;;;;;;;33.22;27.80;;;;;;;7.76;69.45;99625.09;4966450;28;20049;-85
2023/03/03 09:41:27;;;;;;;38.03;29.02;;;;;;;8.29;69.58;99703.72;4974142;28;20027;-85
2023/03/03 09:44:07;;;;;;;33.80;27.30;;;;;;;8.25;69.65;99695.31;4987199;28;20479;-85
2023/03/03 09:46:55;;;;;;;34.45;28.80;;;;;;;8.24;69.57;99698.94;4982562;28;20435;-89
2023/03/03 09:49:34;;;;;;;36.10;25.45;;;;;;;7.51;69.42;99592.66;4991911;28;20033;-88
2023/03/03 09:51:59;;;;;;;30.80;25.20;;;;;;;8.28;69.69;99699.44;4990944;28;20061;-88
2023/03/03 09:54:49;;;;;;;32.72;26.42;;;;;;;8.31;69.71;99693.03;4992059;28;20499;-89
2023/03/03 09:57:31;;;;;;;33.88;25.58;;;;;;;7.47;69.93;99557.16;4992072;28;20068;-88
2023/03/03 10:00:04;;;;;;;32.50;27.10;;;;;;;8.31;69.71;99693.88;4992111;28;20507;-89
2023/03/03 10:02:47;;;;;;;34.08;27.05;;;;;;;8.34;69.45;99690.94;4981836;28;20027;-88
2023/03/03 10:05:19;;;;;;;25.92;21.65;;;;;;;8.32;69.39;99690.25;4972596;28;20110;-89
2023/03/03 10:08:07;;;;;;;24.40;21.02;;;;;;;8.32;69.39;99687.63;4972809;28;20037;-89
2023/03/03 10:10:41;;;;;;;30.23;24.90;;;;;;;8.35;69.21;99689.13;4972528;28;20031;-89
2023/03/03 10:13:10;;;;;;;27.23;22.02;;;;;;;8.34;69.54;99679.59;4971131;28;20117;-88
2023/03/03 10:16:06;;;;;;;26.95;22.70;;;;;;;8.31;69.18;99691.22;4971143;28;20492;-89
2023/03/03 10:18:44;;;;;;;25.58;22.58;;;;;;;8.31;69.53;99674.63;4972051;28;20569;-88
2023/03/03 10:21:39;;;;;;;25.17;21.15;;;;;;;7.72;69.84;99579.09;4988610;28;20034;-87
2023/03/03 10:24:14;;;;;;;27.40;20.05;;;;;;;7.84;69.41;99585.72;4991216;28;20109;-88
2023/03/03 10:26:57;;;;;;;25.40;20.20;;;;;;;8.09;69.47;99628.66;4991959;28;20088;-89
2023/03/03 10:29:38;;;;;;;24.42;19.88;;;;;;;8.45;69.26;99677.50;4990760;28;20022;-88
2023/03/03 10:32:22;;;;;;;23.88;20.88;;;;;;;8.41;68.88;99683.22;4991547;28;20054;-88
2023/03/03 10:34:59;;;;;;;28.20;22.35;;;;;;;8.43;69.11;99674.19;4990390;28;20080;-88
2023/03/03 10:37:53;;;;;;;28.23;25.20;;;;;;;8.44;69.58;99673.22;4990391;28;20037;-87
2023/03/03 10:40:56;;;;;;;29.88;24.88;;;;;;;8.47;69.34;99666.81;4989152;28;20077;-87
2023/03/03 10:43:40;;;;;;;31.30;24.55;;;;;;;8.39;69.87;99680.75;4991917;28;20423;-88
2023/03/03 10:46:20;;;;;;;33.85;24.77;;;;;;;8.51;69.83;99668.94;4985117;28;20042;-88
2023/03/03 10:48:52;;;;;;;29.50;24.17;;;;;;;8.48;69.79;99666.63;4970926;28;20530;-88
2023/03/03 10:51:47;;;;;;;30.42;23.30;;;;;;;8.43;69.78;99670.75;4979705;28;20034;-88
2023/03/03 10:54:21;;;;;;;31.85;26.45;;;;;;;8.30;70.17;99668.53;4972419;28;20027;-87
2023/03/03 10:56:56;;;;;;;35.28;27.98;;;;;;;7.65;69.87;99574.47;4972033;28;20479;-88
2023/03/03 10:59:44;;;;;;;35.22;29.13;;;;;;;8.26;70.25;99660.16;4980209;28;20110;-88
2023/03/03 11:02:12;;;;;;;30.35;25.02;;;;;;;8.17;70.28;99658.44;4969361;28;20075;-88
2023/03/03 11:04:50;;;;;;;29.85;26.00;;;;;;;8.14;70.46;99653.50;4970926;28;20031;-88
2023/03/03 11:07:15;;;;;;;31.30;25.30;;;;;;;8.17;70.45;99655.81;4970928;28;20077;-88
2023/03/03 11:10:04;;;;;;;37.30;30.80;;;;;;;8.24;70.41;99648.97;4972720;28;20039;-88
2023/03/03 11:12:36;;;;;;;35.33;28.20;;;;;;;8.33;70.52;99646.34;4976391;28;20038;-88
2023/03/03 11:15:12;;;;;;;40.35;28.42;;;;;;;8.36;70.60;99646.06;4983500;28;20084;-88
2023/03/03 11:18:06;;;;;;;36.72;29.73;;;;;;;8.31;70.42;99638.63;4993934;28;20117;-88
2023/03/03 11:20:47;;;;;;;36.33;27.70;;;;;;;7.87;71.00;99585.38;4978548;28;20026;-88
2023/03/03 11:23:16;;;;;;;35.05;26.98;;;;;;;8.25;70.98;99632.19;4975642;28;20055;-88
2023/03/03 11:26:12;;;;;;;36.80;29.85;;;;;;;8.19;71.00;99632.03;4976002;28;20176;-88
2023/03/03 11:29:04;;;;;;;34.05;26.50;;;;;;;8.26;70.60;99623.31;4975137;28;20027;-88
2023/03/03 11:31:41;;;;;;;32.17;22.88;;;;;;;7.84;71.08;99562.06;4973992;28;20125;-88
2023/03/03 11:34:12;;;;;;;32.53;25.65;;;;;;;8.24;70.81;99620.03;4973828;28;20027;-88
2023/03/03 11:36:54;;;;;;;20.33;17.10;;;;;;;7.47;71.17;99531.72;4975185;28;20038;-88
2023/03/03 11:39:22;;;;;;;27.33;21.85;;;;;;;7.57;71.04;99521.06;4975195;28;20117;-88
2023/03/03 11:42:23;;;;;;;28.10;21.08;;;;;;;8.20;71.09;99618.72;4986345;28;20546;-89